sensor_id;sensor_type;location;lat;lon;timestamp;P1;durP1;ratioP1;P2;durP2;ratioP2
58621;SDS011;44389;51.578;5.456;2022-08-24T00:01:10;32.67;;;29.38;;
58621;SDS011;44389;51.578;5.456;2022-08-24T00:03:37;29.48;;;26.65;;
58621;SDS011;44389;51.578;5.456;2022-08-24T00:08:31;35.58;;;31.98;;
58621;SDS011;44389;51.578;5.456;2022-08-24T00:10:56;37.08;;;33.28;;
58621;SDS011;44389;51.578;5.456;2022-08-24T00:13:21;42.35;;;38.03;;
58621;SDS011;44389;51.578;5.456;2022-08-24T00:15:47;31.98;;;27.27;;
58621;SDS011;44389;51.578;5.456;2022-08-24T00:18:12;31.40;;;28.20;;
58621;SDS011;44389;51.578;5.456;2022-08-24T00:20:38;27.15;;;24.25;;
58621;SDS011;44389;51.578;5.456;2022-08-24T00:23:04;26.90;;;24.23;;
58621;SDS011;44389;51.578;5.456;2022-08-24T00:25:30;31.20;;;28.15;;
58621;SDS011;44389;51.578;5.456;2022-08-24T00:27:55;32.97;;;29.67;;
58621;SDS011;44389;51.578;5.456;2022-08-24T00:30:21;25.75;;;23.30;;
58621;SDS011;44389;51.578;5.456;2022-08-24T00:32:47;32.38;;;29.10;;
58621;SDS011;44389;51.578;5.456;2022-08-24T00:35:14;26.88;;;24.45;;
58621;SDS011;44389;51.578;5.456;2022-08-24T00:37:42;27.73;;;24.95;;
58621;SDS011;44389;51.578;5.456;2022-08-24T00:40:14;31.00;;;27.95;;
58621;SDS011;44389;51.578;5.456;2022-08-24T00:42:43;28.73;;;25.88;;
58621;SDS011;44389;51.578;5.456;2022-08-24T00:45:09;28.75;;;25.88;;
58621;SDS011;44389;51.578;5.456;2022-08-24T00:47:41;30.35;;;27.38;;
58621;SDS011;44389;51.578;5.456;2022-08-24T00:50:11;36.58;;;32.75;;
58621;SDS011;44389;51.578;5.456;2022-08-24T00:53:00;43.03;;;38.85;;
58621;SDS011;44389;51.578;5.456;2022-08-24T00:55:34;38.05;;;34.15;;
58621;SDS011;44389;51.578;5.456;2022-08-24T00:58:04;40.00;;;35.75;;
58621;SDS011;44389;51.578;5.456;2022-08-24T01:00:40;35.70;;;31.13;;
58621;SDS011;44389;51.578;5.456;2022-08-24T01:03:08;31.67;;;28.48;;
58621;SDS011;44389;51.578;5.456;2022-08-24T01:05:35;29.10;;;26.15;;
58621;SDS011;44389;51.578;5.456;2022-08-24T01:08:03;34.53;;;31.08;;
58621;SDS011;44389;51.578;5.456;2022-08-24T01:10:32;29.17;;;26.27;;
58621;SDS011;44389;51.578;5.456;2022-08-24T01:13:04;34.17;;;30.70;;
58621;SDS011;44389;51.578;5.456;2022-08-24T01:15:33;31.65;;;28.48;;
58621;SDS011;44389;51.578;5.456;2022-08-24T01:18:01;32.22;;;28.83;;
58621;SDS011;44389;51.578;5.456;2022-08-24T01:20:48;32.28;;;29.20;;
58621;SDS011;44389;51.578;5.456;2022-08-24T01:23:25;33.50;;;30.15;;
58621;SDS011;44389;51.578;5.456;2022-08-24T01:26:10;36.15;;;32.63;;
58621;SDS011;44389;51.578;5.456;2022-08-24T01:28:39;35.10;;;31.45;;
58621;SDS011;44389;51.578;5.456;2022-08-24T01:31:07;42.95;;;38.47;;
58621;SDS011;44389;51.578;5.456;2022-08-24T01:33:33;36.22;;;32.63;;
58621;SDS011;44389;51.578;5.456;2022-08-24T01:38:45;43.55;;;38.97;;
58621;SDS011;44389;51.578;5.456;2022-08-24T01:41:12;39.30;;;35.30;;
58621;SDS011;44389;51.578;5.456;2022-08-24T01:43:38;41.30;;;36.90;;
58621;SDS011;44389;51.578;5.456;2022-08-24T01:46:03;38.35;;;33.85;;
58621;SDS011;44389;51.578;5.456;2022-08-24T01:48:28;35.28;;;31.70;;
58621;SDS011;44389;51.578;5.456;2022-08-24T01:50:55;43.55;;;38.80;;
58621;SDS011;44389;51.578;5.456;2022-08-24T01:53:20;45.28;;;40.50;;
58621;SDS011;44389;51.578;5.456;2022-08-24T01:55:46;43.78;;;38.90;;
58621;SDS011;44389;51.578;5.456;2022-08-24T01:58:11;39.58;;;34.90;;
58621;SDS011;44389;51.578;5.456;2022-08-24T02:00:37;36.55;;;32.85;;
58621;SDS011;44389;51.578;5.456;2022-08-24T02:03:03;38.47;;;34.47;;
58621;SDS011;44389;51.578;5.456;2022-08-24T02:05:29;39.90;;;35.83;;
58621;SDS011;44389;51.578;5.456;2022-08-24T02:07:54;50.47;;;45.17;;
58621;SDS011;44389;51.578;5.456;2022-08-24T02:10:20;44.58;;;39.95;;
58621;SDS011;44389;51.578;5.456;2022-08-24T02:12:46;42.45;;;38.25;;
58621;SDS011;44389;51.578;5.456;2022-08-24T02:15:23;40.08;;;36.03;;
58621;SDS011;44389;51.578;5.456;2022-08-24T02:17:51;37.25;;;33.47;;
58621;SDS011;44389;51.578;5.456;2022-08-24T02:20:16;49.92;;;44.60;;
58621;SDS011;44389;51.578;5.456;2022-08-24T02:22:43;68.28;;;56.35;;
58621;SDS011;44389;51.578;5.456;2022-08-24T02:25:08;47.72;;;42.53;;
58621;SDS011;44389;51.578;5.456;2022-08-24T02:27:33;41.63;;;37.17;;
58621;SDS011;44389;51.578;5.456;2022-08-24T02:29:59;41.80;;;37.50;;
58621;SDS011;44389;51.578;5.456;2022-08-24T02:32:24;43.53;;;39.15;;
58621;SDS011;44389;51.578;5.456;2022-08-24T02:34:49;43.75;;;39.17;;
58621;SDS011;44389;51.578;5.456;2022-08-24T02:37:14;44.35;;;39.75;;
58621;SDS011;44389;51.578;5.456;2022-08-24T02:39:40;42.05;;;37.80;;
58621;SDS011;44389;51.578;5.456;2022-08-24T02:42:05;40.60;;;36.50;;
58621;SDS011;44389;51.578;5.456;2022-08-24T02:44:30;38.25;;;34.25;;
58621;SDS011;44389;51.578;5.456;2022-08-24T02:46:56;38.60;;;34.50;;
58621;SDS011;44389;51.578;5.456;2022-08-24T02:49:21;37.35;;;33.65;;
58621;SDS011;44389;51.578;5.456;2022-08-24T02:51:47;38.63;;;34.53;;
58621;SDS011;44389;51.578;5.456;2022-08-24T02:54:13;39.00;;;35.08;;
58621;SDS011;44389;51.578;5.456;2022-08-24T02:56:41;42.20;;;36.20;;
58621;SDS011;44389;51.578;5.456;2022-08-24T02:59:07;45.17;;;40.08;;
58621;SDS011;44389;51.578;5.456;2022-08-24T03:01:32;45.20;;;40.33;;
58621;SDS011;44389;51.578;5.456;2022-08-24T03:03:58;48.58;;;43.28;;
58621;SDS011;44389;51.578;5.456;2022-08-24T03:06:23;48.05;;;43.05;;
58621;SDS011;44389;51.578;5.456;2022-08-24T03:08:48;55.38;;;48.08;;
58621;SDS011;44389;51.578;5.456;2022-08-24T03:11:15;55.15;;;49.13;;
58621;SDS011;44389;51.578;5.456;2022-08-24T03:13:40;53.95;;;48.05;;
58621;SDS011;44389;51.578;5.456;2022-08-24T03:16:06;49.00;;;43.75;;
58621;SDS011;44389;51.578;5.456;2022-08-24T03:18:31;47.92;;;42.78;;
58621;SDS011;44389;51.578;5.456;2022-08-24T03:20:58;42.17;;;37.83;;
58621;SDS011;44389;51.578;5.456;2022-08-24T03:23:25;39.65;;;35.75;;
58621;SDS011;44389;51.578;5.456;2022-08-24T03:25:52;38.40;;;34.67;;
58621;SDS011;44389;51.578;5.456;2022-08-24T03:28:18;34.60;;;31.33;;
58621;SDS011;44389;51.578;5.456;2022-08-24T03:30:44;37.07;;;33.40;;
58621;SDS011;44389;51.578;5.456;2022-08-24T03:33:10;40.75;;;36.38;;
58621;SDS011;44389;51.578;5.456;2022-08-24T03:35:36;44.47;;;39.78;;
58621;SDS011;44389;51.578;5.456;2022-08-24T03:38:01;38.50;;;34.42;;
58621;SDS011;44389;51.578;5.456;2022-08-24T03:40:28;37.92;;;34.25;;
58621;SDS011;44389;51.578;5.456;2022-08-24T03:42:53;37.10;;;33.70;;
58621;SDS011;44389;51.578;5.456;2022-08-24T03:45:19;43.47;;;38.88;;
58621;SDS011;44389;51.578;5.456;2022-08-24T03:47:45;55.92;;;49.97;;
58621;SDS011;44389;51.578;5.456;2022-08-24T03:50:11;52.17;;;46.40;;
58621;SDS011;44389;51.578;5.456;2022-08-24T03:52:37;49.97;;;44.60;;
58621;SDS011;44389;51.578;5.456;2022-08-24T03:55:03;45.53;;;40.72;;
58621;SDS011;44389;51.578;5.456;2022-08-24T03:57:30;46.30;;;41.50;;
58621;SDS011;44389;51.578;5.456;2022-08-24T03:59:55;47.38;;;42.55;;
58621;SDS011;44389;51.578;5.456;2022-08-24T04:02:20;47.25;;;42.25;;
58621;SDS011;44389;51.578;5.456;2022-08-24T04:04:46;46.08;;;41.33;;
58621;SDS011;44389;51.578;5.456;2022-08-24T04:07:11;45.97;;;41.15;;
58621;SDS011;44389;51.578;5.456;2022-08-24T04:09:36;47.20;;;42.22;;
58621;SDS011;44389;51.578;5.456;2022-08-24T04:12:02;46.05;;;41.15;;
58621;SDS011;44389;51.578;5.456;2022-08-24T04:14:27;46.40;;;40.72;;
58621;SDS011;44389;51.578;5.456;2022-08-24T04:16:53;49.53;;;44.10;;
58621;SDS011;44389;51.578;5.456;2022-08-24T04:19:19;50.35;;;44.95;;
58621;SDS011;44389;51.578;5.456;2022-08-24T04:21:44;47.05;;;42.00;;
58621;SDS011;44389;51.578;5.456;2022-08-24T04:24:11;42.00;;;37.63;;
58621;SDS011;44389;51.578;5.456;2022-08-24T04:26:37;44.53;;;39.67;;
58621;SDS011;44389;51.578;5.456;2022-08-24T04:29:05;50.92;;;42.65;;
58621;SDS011;44389;51.578;5.456;2022-08-24T04:31:33;50.22;;;42.90;;
58621;SDS011;44389;51.578;5.456;2022-08-24T04:33:59;46.92;;;42.05;;
58621;SDS011;44389;51.578;5.456;2022-08-24T04:36:24;45.03;;;40.28;;
58621;SDS011;44389;51.578;5.456;2022-08-24T04:38:50;48.42;;;42.15;;
58621;SDS011;44389;51.578;5.456;2022-08-24T04:41:16;49.17;;;43.72;;
58621;SDS011;44389;51.578;5.456;2022-08-24T04:43:44;50.85;;;42.72;;
58621;SDS011;44389;51.578;5.456;2022-08-24T04:46:11;46.53;;;41.53;;
58621;SDS011;44389;51.578;5.456;2022-08-24T04:48:44;42.97;;;38.28;;
58621;SDS011;44389;51.578;5.456;2022-08-24T04:51:11;44.67;;;39.90;;
58621;SDS011;44389;51.578;5.456;2022-08-24T04:53:38;44.50;;;38.65;;
58621;SDS011;44389;51.578;5.456;2022-08-24T04:56:08;47.95;;;42.72;;
58621;SDS011;44389;51.578;5.456;2022-08-24T04:58:35;47.80;;;42.72;;
58621;SDS011;44389;51.578;5.456;2022-08-24T05:01:01;48.67;;;43.38;;
58621;SDS011;44389;51.578;5.456;2022-08-24T05:03:31;53.55;;;44.53;;
58621;SDS011;44389;51.578;5.456;2022-08-24T05:05:56;56.72;;;49.28;;
58621;SDS011;44389;51.578;5.456;2022-08-24T05:08:21;60.22;;;51.70;;
58621;SDS011;44389;51.578;5.456;2022-08-24T05:10:47;59.20;;;48.85;;
58621;SDS011;44389;51.578;5.456;2022-08-24T05:13:13;54.83;;;46.85;;
58621;SDS011;44389;51.578;5.456;2022-08-24T05:15:40;56.78;;;46.78;;
58621;SDS011;44389;51.578;5.456;2022-08-24T05:18:07;60.85;;;54.03;;
58621;SDS011;44389;51.578;5.456;2022-08-24T05:20:32;58.90;;;52.17;;
58621;SDS011;44389;51.578;5.456;2022-08-24T05:22:59;67.75;;;55.83;;
58621;SDS011;44389;51.578;5.456;2022-08-24T05:25:25;57.05;;;50.65;;
58621;SDS011;44389;51.578;5.456;2022-08-24T05:27:50;53.65;;;47.90;;
58621;SDS011;44389;51.578;5.456;2022-08-24T05:30:16;50.30;;;44.80;;
58621;SDS011;44389;51.578;5.456;2022-08-24T05:32:41;59.10;;;51.88;;
58621;SDS011;44389;51.578;5.456;2022-08-24T05:35:07;61.92;;;51.95;;
58621;SDS011;44389;51.578;5.456;2022-08-24T05:37:33;64.80;;;53.05;;
58621;SDS011;44389;51.578;5.456;2022-08-24T05:40:03;68.40;;;56.13;;
58621;SDS011;44389;51.578;5.456;2022-08-24T05:42:31;65.22;;;55.72;;
58621;SDS011;44389;51.578;5.456;2022-08-24T05:44:56;68.38;;;58.70;;
58621;SDS011;44389;51.578;5.456;2022-08-24T05:47:22;66.10;;;56.33;;
58621;SDS011;44389;51.578;5.456;2022-08-24T05:49:47;64.47;;;54.30;;
58621;SDS011;44389;51.578;5.456;2022-08-24T05:52:15;67.75;;;55.28;;
58621;SDS011;44389;51.578;5.456;2022-08-24T05:54:41;74.85;;;60.35;;
58621;SDS011;44389;51.578;5.456;2022-08-24T05:57:06;76.75;;;60.42;;
58621;SDS011;44389;51.578;5.456;2022-08-24T05:59:31;76.22;;;62.50;;
58621;SDS011;44389;51.578;5.456;2022-08-24T06:01:56;82.65;;;69.22;;
58621;SDS011;44389;51.578;5.456;2022-08-24T06:04:22;85.45;;;69.80;;
58621;SDS011;44389;51.578;5.456;2022-08-24T06:06:47;89.07;;;70.57;;
58621;SDS011;44389;51.578;5.456;2022-08-24T06:09:14;88.47;;;71.65;;
58621;SDS011;44389;51.578;5.456;2022-08-24T06:11:39;89.88;;;73.50;;
58621;SDS011;44389;51.578;5.456;2022-08-24T06:14:06;99.28;;;76.88;;
58621;SDS011;44389;51.578;5.456;2022-08-24T06:16:37;102.05;;;78.40;;
58621;SDS011;44389;51.578;5.456;2022-08-24T06:19:05;103.15;;;83.35;;
58621;SDS011;44389;51.578;5.456;2022-08-24T06:21:32;140.15;;;109.15;;
58621;SDS011;44389;51.578;5.456;2022-08-24T06:23:58;139.90;;;110.18;;
58621;SDS011;44389;51.578;5.456;2022-08-24T06:26:24;127.95;;;103.30;;
58621;SDS011;44389;51.578;5.456;2022-08-24T06:29:09;135.25;;;108.75;;
58621;SDS011;44389;51.578;5.456;2022-08-24T06:31:38;125.63;;;102.70;;
58621;SDS011;44389;51.578;5.456;2022-08-24T06:34:06;119.85;;;98.20;;
58621;SDS011;44389;51.578;5.456;2022-08-24T06:36:32;102.00;;;89.75;;
58621;SDS011;44389;51.578;5.456;2022-08-24T06:38:57;102.65;;;85.57;;
58621;SDS011;44389;51.578;5.456;2022-08-24T06:41:23;101.07;;;85.68;;
58621;SDS011;44389;51.578;5.456;2022-08-24T06:43:49;103.65;;;82.07;;
58621;SDS011;44389;51.578;5.456;2022-08-24T06:46:14;88.05;;;72.97;;
58621;SDS011;44389;51.578;5.456;2022-08-24T06:48:40;81.80;;;71.15;;
58621;SDS011;44389;51.578;5.456;2022-08-24T06:51:09;71.20;;;63.40;;
58621;SDS011;44389;51.578;5.456;2022-08-24T06:53:36;77.75;;;69.35;;
58621;SDS011;44389;51.578;5.456;2022-08-24T06:56:01;65.63;;;58.47;;
58621;SDS011;44389;51.578;5.456;2022-08-24T06:58:28;64.67;;;57.57;;
58621;SDS011;44389;51.578;5.456;2022-08-24T07:00:55;67.00;;;59.87;;
58621;SDS011;44389;51.578;5.456;2022-08-24T07:03:21;66.38;;;58.42;;
58621;SDS011;44389;51.578;5.456;2022-08-24T07:05:51;67.25;;;59.92;;
58621;SDS011;44389;51.578;5.456;2022-08-24T07:08:18;68.68;;;60.35;;
58621;SDS011;44389;51.578;5.456;2022-08-24T07:10:44;66.68;;;59.10;;
58621;SDS011;44389;51.578;5.456;2022-08-24T07:13:09;60.85;;;54.45;;
58621;SDS011;44389;51.578;5.456;2022-08-24T07:15:36;59.33;;;51.28;;
58621;SDS011;44389;51.578;5.456;2022-08-24T07:18:01;59.70;;;53.15;;
58621;SDS011;44389;51.578;5.456;2022-08-24T07:20:30;58.05;;;51.17;;
58621;SDS011;44389;51.578;5.456;2022-08-24T07:22:55;64.13;;;51.88;;
58621;SDS011;44389;51.578;5.456;2022-08-24T07:25:20;58.05;;;51.95;;
58621;SDS011;44389;51.578;5.456;2022-08-24T07:27:46;50.42;;;45.13;;
58621;SDS011;44389;51.578;5.456;2022-08-24T07:30:12;53.05;;;46.28;;
58621;SDS011;44389;51.578;5.456;2022-08-24T07:32:37;52.15;;;46.05;;
58621;SDS011;44389;51.578;5.456;2022-08-24T07:35:02;52.25;;;45.42;;
58621;SDS011;44389;51.578;5.456;2022-08-24T07:37:28;48.03;;;43.03;;
58621;SDS011;44389;51.578;5.456;2022-08-24T07:39:53;44.92;;;40.22;;
58621;SDS011;44389;51.578;5.456;2022-08-24T07:42:19;46.72;;;41.83;;
58621;SDS011;44389;51.578;5.456;2022-08-24T07:44:44;49.90;;;44.50;;
58621;SDS011;44389;51.578;5.456;2022-08-24T07:47:09;47.15;;;41.67;;
58621;SDS011;44389;51.578;5.456;2022-08-24T07:49:34;45.25;;;40.58;;
58621;SDS011;44389;51.578;5.456;2022-08-24T07:52:00;43.22;;;37.28;;
58621;SDS011;44389;51.578;5.456;2022-08-24T07:54:25;43.72;;;39.05;;
58621;SDS011;44389;51.578;5.456;2022-08-24T07:56:52;42.65;;;37.38;;
58621;SDS011;44389;51.578;5.456;2022-08-24T07:59:18;45.45;;;37.80;;
58621;SDS011;44389;51.578;5.456;2022-08-24T08:01:43;38.00;;;33.88;;
58621;SDS011;44389;51.578;5.456;2022-08-24T08:04:08;35.15;;;31.38;;
58621;SDS011;44389;51.578;5.456;2022-08-24T08:06:34;39.38;;;33.90;;
58621;SDS011;44389;51.578;5.456;2022-08-24T08:09:00;27.98;;;22.88;;
58621;SDS011;44389;51.578;5.456;2022-08-24T08:11:26;26.90;;;19.97;;
58621;SDS011;44389;51.578;5.456;2022-08-24T08:13:52;23.38;;;19.50;;
58621;SDS011;44389;51.578;5.456;2022-08-24T08:16:18;23.90;;;19.67;;
58621;SDS011;44389;51.578;5.456;2022-08-24T08:18:45;22.75;;;17.83;;
58621;SDS011;44389;51.578;5.456;2022-08-24T08:21:11;22.75;;;18.42;;
58621;SDS011;44389;51.578;5.456;2022-08-24T08:23:56;24.92;;;15.80;;
58621;SDS011;44389;51.578;5.456;2022-08-24T08:26:44;23.38;;;17.10;;
58621;SDS011;44389;51.578;5.456;2022-08-24T08:29:11;20.92;;;14.98;;
58621;SDS011;44389;51.578;5.456;2022-08-24T08:31:37;22.17;;;15.00;;
58621;SDS011;44389;51.578;5.456;2022-08-24T08:34:04;22.70;;;17.60;;
58621;SDS011;44389;51.578;5.456;2022-08-24T08:36:30;21.58;;;17.70;;
58621;SDS011;44389;51.578;5.456;2022-08-24T08:38:55;18.58;;;16.10;;
58621;SDS011;44389;51.578;5.456;2022-08-24T08:49:55;19.00;;;14.00;;
58621;SDS011;44389;51.578;5.456;2022-08-24T08:55:35;18.88;;;12.25;;
58621;SDS011;44389;51.578;5.456;2022-08-24T08:58:12;14.00;;;10.80;;
58621;SDS011;44389;51.578;5.456;2022-08-24T09:00:54;16.30;;;12.52;;
58621;SDS011;44389;51.578;5.456;2022-08-24T09:03:30;20.58;;;14.73;;
58621;SDS011;44389;51.578;5.456;2022-08-24T09:06:12;13.65;;;11.38;;
58621;SDS011;44389;51.578;5.456;2022-08-24T09:08:57;14.73;;;10.15;;
58621;SDS011;44389;51.578;5.456;2022-08-24T09:14:56;14.45;;;8.30;;
58621;SDS011;44389;51.578;5.456;2022-08-24T09:17:39;12.05;;;6.57;;
58621;SDS011;44389;51.578;5.456;2022-08-24T09:26:26;7.68;;;4.35;;
58621;SDS011;44389;51.578;5.456;2022-08-24T09:29:11;10.20;;;4.68;;
58621;SDS011;44389;51.578;5.456;2022-08-24T09:34:35;8.32;;;4.90;;
58621;SDS011;44389;51.578;5.456;2022-08-24T09:37:25;8.55;;;4.28;;
58621;SDS011;44389;51.578;5.456;2022-08-24T09:45:24;7.72;;;4.38;;
58621;SDS011;44389;51.578;5.456;2022-08-24T09:48:06;7.68;;;4.35;;
58621;SDS011;44389;51.578;5.456;2022-08-24T09:50:58;6.70;;;4.07;;
58621;SDS011;44389;51.578;5.456;2022-08-24T09:59:44;11.50;;;5.07;;
58621;SDS011;44389;51.578;5.456;2022-08-24T10:02:20;8.50;;;4.72;;
58621;SDS011;44389;51.578;5.456;2022-08-24T10:13:44;11.57;;;4.75;;
58621;SDS011;44389;51.578;5.456;2022-08-24T10:16:35;10.75;;;3.80;;
58621;SDS011;44389;51.578;5.456;2022-08-24T10:24:37;8.52;;;3.33;;
58621;SDS011;44389;51.578;5.456;2022-08-24T10:33:05;7.63;;;3.53;;
58621;SDS011;44389;51.578;5.456;2022-08-24T10:35:34;7.22;;;3.60;;
58621;SDS011;44389;51.578;5.456;2022-08-24T10:38:24;6.47;;;2.70;;
58621;SDS011;44389;51.578;5.456;2022-08-24T10:44:35;6.47;;;2.70;;
58621;SDS011;44389;51.578;5.456;2022-08-24T10:47:19;5.85;;;2.70;;
58621;SDS011;44389;51.578;5.456;2022-08-24T10:57:47;6.15;;;2.20;;
58621;SDS011;44389;51.578;5.456;2022-08-24T11:03:11;12.13;;;3.67;;
58621;SDS011;44389;51.578;5.456;2022-08-24T11:05:41;7.20;;;2.80;;
58621;SDS011;44389;51.578;5.456;2022-08-24T11:08:24;7.70;;;2.63;;
58621;SDS011;44389;51.578;5.456;2022-08-24T11:13:54;6.03;;;2.70;;
58621;SDS011;44389;51.578;5.456;2022-08-24T11:18:59;5.80;;;2.60;;
58621;SDS011;44389;51.578;5.456;2022-08-24T11:21:36;5.07;;;2.35;;
58621;SDS011;44389;51.578;5.456;2022-08-24T11:24:12;4.10;;;1.83;;
58621;SDS011;44389;51.578;5.456;2022-08-24T11:26:49;4.25;;;1.88;;
58621;SDS011;44389;51.578;5.456;2022-08-24T11:29:19;6.07;;;2.20;;
58621;SDS011;44389;51.578;5.456;2022-08-24T11:31:46;6.65;;;1.80;;
58621;SDS011;44389;51.578;5.456;2022-08-24T11:34:56;7.68;;;1.90;;
58621;SDS011;44389;51.578;5.456;2022-08-24T11:37:04;5.93;;;1.88;;
58621;SDS011;44389;51.578;5.456;2022-08-24T11:39:35;4.60;;;1.70;;
58621;SDS011;44389;51.578;5.456;2022-08-24T11:47:36;7.00;;;2.40;;
58621;SDS011;44389;51.578;5.456;2022-08-24T11:50:35;6.13;;;2.35;;
58621;SDS011;44389;51.578;5.456;2022-08-24T11:58:22;6.07;;;2.20;;
58621;SDS011;44389;51.578;5.456;2022-08-24T12:09:28;3.35;;;1.88;;
58621;SDS011;44389;51.578;5.456;2022-08-24T12:12:00;4.60;;;1.70;;
58621;SDS011;44389;51.578;5.456;2022-08-24T12:14:38;4.25;;;1.80;;
58621;SDS011;44389;51.578;5.456;2022-08-24T12:17:13;10.65;;;2.08;;
58621;SDS011;44389;51.578;5.456;2022-08-24T12:19:52;4.97;;;2.05;;
58621;SDS011;44389;51.578;5.456;2022-08-24T12:22:22;4.68;;;2.10;;
58621;SDS011;44389;51.578;5.456;2022-08-24T12:24:52;5.50;;;2.00;;
58621;SDS011;44389;51.578;5.456;2022-08-24T12:27:21;6.13;;;2.33;;
58621;SDS011;44389;51.578;5.456;2022-08-24T12:30:11;9.20;;;2.33;;
58621;SDS011;44389;51.578;5.456;2022-08-24T12:32:41;11.38;;;2.85;;
58621;SDS011;44389;51.578;5.456;2022-08-24T12:35:18;6.15;;;2.63;;
58621;SDS011;44389;51.578;5.456;2022-08-24T12:38:07;6.55;;;2.50;;
58621;SDS011;44389;51.578;5.456;2022-08-24T12:40:39;7.35;;;2.20;;
58621;SDS011;44389;51.578;5.456;2022-08-24T12:43:22;4.45;;;2.00;;
58621;SDS011;44389;51.578;5.456;2022-08-24T12:45:53;4.28;;;2.47;;
58621;SDS011;44389;51.578;5.456;2022-08-24T12:48:23;7.88;;;2.40;;
58621;SDS011;44389;51.578;5.456;2022-08-24T13:02:26;5.93;;;2.45;;
58621;SDS011;44389;51.578;5.456;2022-08-24T13:04:53;4.75;;;1.90;;
58621;SDS011;44389;51.578;5.456;2022-08-24T13:14:54;5.35;;;1.98;;
58621;SDS011;44389;51.578;5.456;2022-08-24T13:31:28;3.95;;;1.60;;
58621;SDS011;44389;51.578;5.456;2022-08-24T13:44:11;66.37;;;7.60;;
58621;SDS011;44389;51.578;5.456;2022-08-24T13:55:28;4.57;;;1.90;;
58621;SDS011;44389;51.578;5.456;2022-08-24T14:00:47;5.13;;;1.70;;
58621;SDS011;44389;51.578;5.456;2022-08-24T14:05:50;4.45;;;1.90;;
58621;SDS011;44389;51.578;5.456;2022-08-24T14:08:40;4.50;;;1.50;;
58621;SDS011;44389;51.578;5.456;2022-08-24T14:14:17;3.83;;;1.20;;
58621;SDS011;44389;51.578;5.456;2022-08-24T14:17:05;10.50;;;1.80;;
58621;SDS011;44389;51.578;5.456;2022-08-24T14:20:21;6.07;;;1.75;;
58621;SDS011;44389;51.578;5.456;2022-08-24T14:25:48;8.27;;;1.90;;
58621;SDS011;44389;51.578;5.456;2022-08-24T14:28:35;5.03;;;1.63;;
58621;SDS011;44389;51.578;5.456;2022-08-24T14:31:14;5.70;;;1.80;;
58621;SDS011;44389;51.578;5.456;2022-08-24T14:33:58;7.50;;;1.88;;
58621;SDS011;44389;51.578;5.456;2022-08-24T14:36:41;5.82;;;1.80;;
58621;SDS011;44389;51.578;5.456;2022-08-24T14:39:29;4.85;;;1.73;;
58621;SDS011;44389;51.578;5.456;2022-08-24T14:50:14;4.60;;;1.80;;
58621;SDS011;44389;51.578;5.456;2022-08-24T14:58:06;7.03;;;2.20;;
58621;SDS011;44389;51.578;5.456;2022-08-24T15:01:01;4.43;;;1.75;;
58621;SDS011;44389;51.578;5.456;2022-08-24T15:09:29;5.10;;;1.95;;
58621;SDS011;44389;51.578;5.456;2022-08-24T15:17:16;4.20;;;2.00;;
58621;SDS011;44389;51.578;5.456;2022-08-24T15:19:48;5.80;;;2.00;;
58621;SDS011;44389;51.578;5.456;2022-08-24T15:25:03;7.45;;;1.90;;
58621;SDS011;44389;51.578;5.456;2022-08-24T15:27:42;14.32;;;3.33;;
58621;SDS011;44389;51.578;5.456;2022-08-24T15:35:33;4.80;;;2.08;;
58621;SDS011;44389;51.578;5.456;2022-08-24T15:38:21;6.30;;;2.10;;
58621;SDS011;44389;51.578;5.456;2022-08-24T15:41:12;5.53;;;2.00;;
58621;SDS011;44389;51.578;5.456;2022-08-24T15:43:45;6.25;;;1.90;;
58621;SDS011;44389;51.578;5.456;2022-08-24T15:46:17;6.35;;;2.00;;
58621;SDS011;44389;51.578;5.456;2022-08-24T15:48:45;6.53;;;2.33;;
58621;SDS011;44389;51.578;5.456;2022-08-24T15:51:27;5.03;;;2.08;;
58621;SDS011;44389;51.578;5.456;2022-08-24T15:53:57;3.85;;;1.83;;
58621;SDS011;44389;51.578;5.456;2022-08-24T15:56:45;6.20;;;2.10;;
58621;SDS011;44389;51.578;5.456;2022-08-24T15:59:13;10.70;;;2.30;;
58621;SDS011;44389;51.578;5.456;2022-08-24T16:07:56;6.97;;;2.17;;
58621;SDS011;44389;51.578;5.456;2022-08-24T16:13:11;4.95;;;2.55;;
58621;SDS011;44389;51.578;5.456;2022-08-24T16:15:45;8.35;;;2.45;;
58621;SDS011;44389;51.578;5.456;2022-08-24T16:18:24;7.28;;;2.25;;
58621;SDS011;44389;51.578;5.456;2022-08-24T16:20:51;10.70;;;2.38;;
58621;SDS011;44389;51.578;5.456;2022-08-24T16:23:25;8.18;;;2.00;;
58621;SDS011;44389;51.578;5.456;2022-08-24T16:26:16;5.55;;;2.20;;
58621;SDS011;44389;51.578;5.456;2022-08-24T16:28:42;7.22;;;2.00;;
58621;SDS011;44389;51.578;5.456;2022-08-24T16:31:08;7.18;;;2.13;;
58621;SDS011;44389;51.578;5.456;2022-08-24T16:36:01;6.82;;;2.50;;
58621;SDS011;44389;51.578;5.456;2022-08-24T16:38:29;7.03;;;2.80;;
58621;SDS011;44389;51.578;5.456;2022-08-24T16:40:56;5.88;;;2.15;;
58621;SDS011;44389;51.578;5.456;2022-08-24T16:43:23;6.80;;;2.40;;
58621;SDS011;44389;51.578;5.456;2022-08-24T16:45:48;6.18;;;2.10;;
58621;SDS011;44389;51.578;5.456;2022-08-24T16:48:14;7.13;;;2.58;;
58621;SDS011;44389;51.578;5.456;2022-08-24T16:50:39;5.13;;;1.90;;
58621;SDS011;44389;51.578;5.456;2022-08-24T16:53:05;8.65;;;2.20;;
58621;SDS011;44389;51.578;5.456;2022-08-24T16:55:30;6.07;;;2.20;;
58621;SDS011;44389;51.578;5.456;2022-08-24T16:57:55;8.15;;;3.17;;
58621;SDS011;44389;51.578;5.456;2022-08-24T17:00:21;6.82;;;2.28;;
58621;SDS011;44389;51.578;5.456;2022-08-24T17:02:46;8.38;;;2.22;;
58621;SDS011;44389;51.578;5.456;2022-08-24T17:05:14;4.93;;;2.30;;
58621;SDS011;44389;51.578;5.456;2022-08-24T17:07:41;5.88;;;2.28;;
58621;SDS011;44389;51.578;5.456;2022-08-24T17:10:08;6.32;;;2.42;;
58621;SDS011;44389;51.578;5.456;2022-08-24T17:12:37;7.60;;;2.20;;
58621;SDS011;44389;51.578;5.456;2022-08-24T17:15:06;8.13;;;2.70;;
58621;SDS011;44389;51.578;5.456;2022-08-24T17:17:33;7.53;;;2.22;;
58621;SDS011;44389;51.578;5.456;2022-08-24T17:20:00;4.53;;;2.40;;
58621;SDS011;44389;51.578;5.456;2022-08-24T17:22:26;8.10;;;2.63;;
58621;SDS011;44389;51.578;5.456;2022-08-24T17:24:52;6.85;;;2.30;;
58621;SDS011;44389;51.578;5.456;2022-08-24T17:27:18;4.97;;;2.30;;
58621;SDS011;44389;51.578;5.456;2022-08-24T17:29:48;5.35;;;2.22;;
58621;SDS011;44389;51.578;5.456;2022-08-24T17:32:14;8.13;;;2.15;;
58621;SDS011;44389;51.578;5.456;2022-08-24T17:34:40;5.20;;;2.15;;
58621;SDS011;44389;51.578;5.456;2022-08-24T17:37:06;8.52;;;2.30;;
58621;SDS011;44389;51.578;5.456;2022-08-24T17:39:33;5.25;;;2.20;;
58621;SDS011;44389;51.578;5.456;2022-08-24T17:41:59;5.95;;;2.38;;
58621;SDS011;44389;51.578;5.456;2022-08-24T17:44:26;4.85;;;2.30;;
58621;SDS011;44389;51.578;5.456;2022-08-24T17:46:54;11.80;;;2.80;;
58621;SDS011;44389;51.578;5.456;2022-08-24T17:49:22;8.90;;;2.30;;
58621;SDS011;44389;51.578;5.456;2022-08-24T17:51:48;5.50;;;2.67;;
58621;SDS011;44389;51.578;5.456;2022-08-24T17:54:13;9.48;;;2.47;;
58621;SDS011;44389;51.578;5.456;2022-08-24T17:56:39;6.00;;;2.05;;
58621;SDS011;44389;51.578;5.456;2022-08-24T17:59:06;7.22;;;2.42;;
58621;SDS011;44389;51.578;5.456;2022-08-24T18:01:45;8.60;;;2.53;;
58621;SDS011;44389;51.578;5.456;2022-08-24T18:04:11;8.50;;;2.40;;
58621;SDS011;44389;51.578;5.456;2022-08-24T18:06:37;5.97;;;2.15;;
58621;SDS011;44389;51.578;5.456;2022-08-24T18:09:03;6.97;;;2.90;;
58621;SDS011;44389;51.578;5.456;2022-08-24T18:11:31;9.02;;;2.60;;
58621;SDS011;44389;51.578;5.456;2022-08-24T18:13:56;9.77;;;2.35;;